Norwegian Star — C6FR3 — position and weather

sailwx.info

Track history (hours):
 
Tides and Currents Weather Stations Pressure Air Temp Water Temp Dewpoint Dewpoint Depression Visibility Wind Speed Wind Dir Waves Ship Positions

Norwegian Star

Operator: Norwegian Cruise Line

Last reported at 2018-Jul-22 03:00 UTC. Time now 2018-Jul-22 03:22 UTC.
Position N 45°21' E 012°35'.

Type: Passenger vessel. MMSI: 311082000.

Date/timePositionNaut miles runAvg speedWind from/ knotsBaromVisibWave heightAir tempDewpointWater temp
2018-Jul-22 03:00N 45°21' E 012°35'815.1
2018-Jul-22 02:30N 45°17' E 012°44'917.4
2018-Jul-22 02:00N 45°11' E 012°52'917.8
2018-Jul-22 01:30N 45°04' E 013°00'917.5
2018-Jul-22 01:00N 45°01' E 013°12'816.7
2018-Jul-22 00:30N 44°56' E 013°21'917.5
2018-Jul-22 00:00N 44°49' E 013°28'917.4
2018-Jul-21 23:29N 44°41' E 013°35'917.4
2018-Jul-21 22:59N 44°34' E 013°42'817.3
2018-Jul-21 22:30N 44°27' E 013°48'917.3
2018-Jul-21 22:00N 44°20' E 013°55'917.2
2018-Jul-21 21:30N 44°12' E 014°01'  
2018-Jul-16 21:01N 44°26' E 013°43'017.4
2018-Jul-16 21:01N 44°26' E 013°43'917.2
2018-Jul-16 20:30N 44°33' E 013°36'917.4
2018-Jul-16 20:01N 44°41' E 013°29'917.8
2018-Jul-16 19:30N 44°48' E 013°23'917.8
2018-Jul-16 19:00N 44°56' E 013°15'917.7
2018-Jul-16 18:30N 45°02' E 013°06'917.7
2018-Jul-16 18:01N 45°08' E 012°58'917.8
2018-Jul-16 17:30N 45°14' E 012°48'917.5
2018-Jul-16 17:00N 45°20' E 012°38'815.3
2018-Jul-16 16:30N 45°24' E 012°30'5 9.0
2018-Jul-16 16:00N 45°26' E 012°24'2 5.0
2018-Jul-16 15:30N 45°26' E 012°20'1 0.1
2018-Jul-16 05:54N 45°26' E 012°18'1 2.6
2018-Jul-16 05:30N 45°26' E 012°20'2 4.7
2018-Jul-16 05:00N 45°26' E 012°23'4 7.6
2018-Jul-16 04:30N 45°24' E 012°28'5 9.9
2018-Jul-16 04:00N 45°22' E 012°34'611.6
2018-Jul-16 03:30N 45°19' E 012°41'612.3
2018-Jul-16 03:00N 45°15' E 012°48'612.4
2018-Jul-16 02:30N 45°10' E 012°53'612.4
2018-Jul-16 02:00N 45°05' E 012°59'815.1
2018-Jul-16 01:30N 45°02' E 013°09'815.6
2018-Jul-16 01:01N 44°58' E 013°18'815.8
2018-Jul-16 00:31N 44°52' E 013°25'816.6
2018-Jul-16 00:00N 44°45' E 013°32'1017.2
2018-Jul-15 23:25N 44°36' E 013°39'917.3
2018-Jul-15 22:54N 44°29' E 013°46'717.4
2018-Jul-15 22:29N 44°23' E 013°52'817.7
2018-Jul-15 22:00N 44°16' E 013°58'917.8
2018-Jul-15 21:30N 44°08' E 014°05'917.5
2018-Jul-15 21:00N 44°04' E 014°15'  
2018-Jul-12 19:08N 37°27' E 023°47'211.7
2018-Jul-12 19:00N 37°28' E 023°46'611.7
2018-Jul-12 18:30N 37°34' E 023°45'713.1
2018-Jul-12 18:00N 37°40' E 023°42'713.7
2018-Jul-12 17:30N 37°46' E 023°39'611.6
2018-Jul-12 17:00N 37°52' E 023°36'4 8.7
2018-Jul-12 16:30N 37°56' E 023°37'0 0.8
2018-Jul-12 16:00N 37°56' E 023°37'0 0.0
2018-Jul-12 15:30N 37°56' E 023°37'0 0.0
2018-Jul-12 15:00N 37°56' E 023°37'0 0.0
2018-Jul-12 14:30N 37°56' E 023°37'0 0.0
2018-Jul-12 14:00N 37°56' E 023°37'0 0.0
2018-Jul-12 13:30N 37°56' E 023°37'0 0.0
2018-Jul-12 13:00N 37°56' E 023°37'0 0.0
2018-Jul-12 12:30N 37°56' E 023°37'0 0.0
2018-Jul-12 12:00N 37°56' E 023°37'0 0.0
2018-Jul-12 11:27N 37°56' E 023°37'0 0.0
2018-Jul-12 11:00N 37°56' E 023°37'0 0.0
2018-Jul-12 10:30N 37°56' E 023°37'0 0.0
2018-Jul-12 10:00N 37°56' E 023°37'0 0.0
2018-Jul-12 09:30N 37°56' E 023°37'0 0.0
2018-Jul-12 09:00N 37°56' E 023°37'0 0.0
2018-Jul-12 08:30N 37°56' E 023°37'0 0.0
2018-Jul-12 08:00N 37°56' E 023°37'0 0.0
2018-Jul-12 07:30N 37°56' E 023°37'0 0.0
2018-Jul-12 07:00N 37°56' E 023°37'0 0.0
2018-Jul-12 06:30N 37°56' E 023°37'0 0.0
2018-Jul-12 06:00N 37°56' E 023°37'0 0.0
2018-Jul-12 05:30N 37°56' E 023°37'0 0.2
2018-Jul-12 05:01N 37°56' E 023°37'1 1.8
2018-Jul-12 04:31N 37°55' E 023°37'1020.1
2018-Jul-12 04:00N 37°46' E 023°42'1121.1
2018-Jul-12 03:30N 37°36' E 023°46'  
Track history (hours):
 
Tides and Currents Weather Stations Pressure Air Temp Water Temp Dewpoint Dewpoint Depression Visibility Wind Speed Wind Dir Waves Ship Positions

Norwegian Star

Operator: Norwegian Cruise Line

Last reported at 2018-Jul-22 03:00 UTC. Time now 2018-Jul-22 03:22 UTC.
Position N 45°21' E 012°35'.

Type: Passenger vessel. MMSI: 311082000.

Date/timePositionNaut miles runAvg speedWind from/ knotsBaromVisibWave heightAir tempDewpointWater temp
2018-Jul-22 03:00N 45°21' E 012°35'815.1
2018-Jul-22 02:30N 45°17' E 012°44'917.4
2018-Jul-22 02:00N 45°11' E 012°52'917.8
2018-Jul-22 01:30N 45°04' E 013°00'917.5
2018-Jul-22 01:00N 45°01' E 013°12'816.7
2018-Jul-22 00:30N 44°56' E 013°21'917.5
2018-Jul-22 00:00N 44°49' E 013°28'917.4
2018-Jul-21 23:29N 44°41' E 013°35'917.4
2018-Jul-21 22:59N 44°34' E 013°42'817.3
2018-Jul-21 22:30N 44°27' E 013°48'917.3
2018-Jul-21 22:00N 44°20' E 013°55'917.2
2018-Jul-21 21:30N 44°12' E 014°01'  
2018-Jul-16 21:01N 44°26' E 013°43'017.4
2018-Jul-16 21:01N 44°26' E 013°43'917.2
2018-Jul-16 20:30N 44°33' E 013°36'917.4
2018-Jul-16 20:01N 44°41' E 013°29'917.8
2018-Jul-16 19:30N 44°48' E 013°23'917.8
2018-Jul-16 19:00N 44°56' E 013°15'917.7
2018-Jul-16 18:30N 45°02' E 013°06'917.7
2018-Jul-16 18:01N 45°08' E 012°58'917.8
2018-Jul-16 17:30N 45°14' E 012°48'917.5
2018-Jul-16 17:00N 45°20' E 012°38'815.3
2018-Jul-16 16:30N 45°24' E 012°30'5 9.0
2018-Jul-16 16:00N 45°26' E 012°24'2 5.0
2018-Jul-16 15:30N 45°26' E 012°20'1 0.1
2018-Jul-16 05:54N 45°26' E 012°18'1 2.6
2018-Jul-16 05:30N 45°26' E 012°20'2 4.7
2018-Jul-16 05:00N 45°26' E 012°23'4 7.6
2018-Jul-16 04:30N 45°24' E 012°28'5 9.9
2018-Jul-16 04:00N 45°22' E 012°34'611.6
2018-Jul-16 03:30N 45°19' E 012°41'612.3
2018-Jul-16 03:00N 45°15' E 012°48'612.4
2018-Jul-16 02:30N 45°10' E 012°53'612.4
2018-Jul-16 02:00N 45°05' E 012°59'815.1
2018-Jul-16 01:30N 45°02' E 013°09'815.6
2018-Jul-16 01:01N 44°58' E 013°18'815.8
2018-Jul-16 00:31N 44°52' E 013°25'816.6
2018-Jul-16 00:00N 44°45' E 013°32'1017.2
2018-Jul-15 23:25N 44°36' E 013°39'917.3
2018-Jul-15 22:54N 44°29' E 013°46'717.4
2018-Jul-15 22:29N 44°23' E 013°52'817.7
2018-Jul-15 22:00N 44°16' E 013°58'917.8
2018-Jul-15 21:30N 44°08' E 014°05'917.5
2018-Jul-15 21:00N 44°04' E 014°15'  
2018-Jul-12 19:08N 37°27' E 023°47'211.7
2018-Jul-12 19:00N 37°28' E 023°46'611.7
2018-Jul-12 18:30N 37°34' E 023°45'713.1
2018-Jul-12 18:00N 37°40' E 023°42'713.7
2018-Jul-12 17:30N 37°46' E 023°39'611.6
2018-Jul-12 17:00N 37°52' E 023°36'4 8.7
2018-Jul-12 16:30N 37°56' E 023°37'0 0.8
2018-Jul-12 16:00N 37°56' E 023°37'0 0.0
2018-Jul-12 15:30N 37°56' E 023°37'0 0.0
2018-Jul-12 15:00N 37°56' E 023°37'0 0.0
2018-Jul-12 14:30N 37°56' E 023°37'0 0.0
2018-Jul-12 14:00N 37°56' E 023°37'0 0.0
2018-Jul-12 13:30N 37°56' E 023°37'0 0.0
2018-Jul-12 13:00N 37°56' E 023°37'0 0.0
2018-Jul-12 12:30N 37°56' E 023°37'0 0.0
2018-Jul-12 12:00N 37°56' E 023°37'0 0.0
2018-Jul-12 11:27N 37°56' E 023°37'0 0.0
2018-Jul-12 11:00N 37°56' E 023°37'0 0.0
2018-Jul-12 10:30N 37°56' E 023°37'0 0.0
2018-Jul-12 10:00N 37°56' E 023°37'0 0.0
2018-Jul-12 09:30N 37°56' E 023°37'0 0.0
2018-Jul-12 09:00N 37°56' E 023°37'0 0.0
2018-Jul-12 08:30N 37°56' E 023°37'0 0.0
2018-Jul-12 08:00N 37°56' E 023°37'0 0.0
2018-Jul-12 07:30N 37°56' E 023°37'0 0.0
2018-Jul-12 07:00N 37°56' E 023°37'0 0.0
2018-Jul-12 06:30N 37°56' E 023°37'0 0.0
2018-Jul-12 06:00N 37°56' E 023°37'0 0.0
2018-Jul-12 05:30N 37°56' E 023°37'0 0.2
2018-Jul-12 05:01N 37°56' E 023°37'1 1.8
2018-Jul-12 04:31N 37°55' E 023°37'1020.1
2018-Jul-12 04:00N 37°46' E 023°42'1121.1
2018-Jul-12 03:30N 37°36' E 023°46'  

Dump ship's entire track history